Time;durP1;ratioP1;P1;durP2;ratioP2;P2;SDS_P1;SDS_P2;PMS_P1;PMS_P2;Temp;Humidity;BMP_temperature;BMP_pressure;BME280_temperature;BME280_humidity;BME280_pressure;Samples;Min_cycle;Max_cycle;Signal;HPM_P1;HPM_P2
2021/06/19 00:00:53;;;;;;;10.10;8.45;;;;;;;;;;5082592;28;20048;-37
2021/06/19 00:03:20;;;;;;;10.40;7.45;;;;;;;;;;5091829;28;20047;-37
2021/06/19 00:05:47;;;;;;;9.07;8.07;;;;;;;;;;5092185;28;20055;-38
2021/06/19 00:08:14;;;;;;;11.18;7.75;;;;;;;;;;5073865;28;20049;-38
2021/06/19 00:10:41;;;;;;;12.77;8.35;;;;;;;;;;5073075;28;20185;-37
2021/06/19 00:13:08;;;;;;;8.77;7.75;;;;;;;;;;5083858;28;20440;-38
2021/06/19 00:15:35;;;;;;;9.60;7.60;;;;;;;;;;5084245;28;20125;-38
2021/06/19 00:18:02;;;;;;;9.93;8.15;;;;;;;;;;5087392;28;20106;-39
2021/06/19 00:20:29;;;;;;;12.55;8.52;;;;;;;;;;5091904;28;20051;-38
2021/06/19 00:22:56;;;;;;;10.73;8.80;;;;;;;;;;5092952;28;20075;-38
2021/06/19 00:25:24;;;;;;;9.65;8.48;;;;;;;;;;5095085;28;20405;-38
2021/06/19 00:27:51;;;;;;;10.50;8.68;;;;;;;;;;5077620;28;20127;-37
2021/06/19 00:30:18;;;;;;;11.88;8.88;;;;;;;;;;5073079;28;20140;-37
2021/06/19 00:32:46;;;;;;;9.32;8.15;;;;;;;;;;5084744;28;20052;-37
2021/06/19 00:35:13;;;;;;;10.77;8.57;;;;;;;;;;5083079;28;20066;-37
2021/06/19 00:37:40;;;;;;;11.05;8.45;;;;;;;;;;5081290;28;20131;-36
2021/06/19 00:40:08;;;;;;;10.00;8.30;;;;;;;;;;5091762;28;20048;-36
2021/06/19 00:42:35;;;;;;;12.60;9.73;;;;;;;;;;5092160;28;20112;-39
2021/06/19 00:45:02;;;;;;;10.57;9.00;;;;;;;;;;5081288;28;20074;-36
2021/06/19 00:47:29;;;;;;;11.23;8.63;;;;;;;;;;5072824;28;20072;-39
2021/06/19 00:49:56;;;;;;;9.98;8.18;;;;;;;;;;5088821;28;20416;-37
2021/06/19 00:52:23;;;;;;;9.90;8.40;;;;;;;;;;5088237;28;20060;-36
2021/06/19 00:54:50;;;;;;;9.38;8.48;;;;;;;;;;5072383;28;20048;-37
2021/06/19 00:57:16;;;;;;;10.30;8.32;;;;;;;;;;5074363;28;20498;-37
2021/06/19 00:59:43;;;;;;;11.95;8.40;;;;;;;;;;5080211;28;20249;-37
2021/06/19 01:02:10;;;;;;;9.82;8.93;;;;;;;;;;5091235;28;20044;-37
2021/06/19 01:04:37;;;;;;;10.35;9.27;;;;;;;;;;5079177;28;20049;-37
2021/06/19 01:07:04;;;;;;;10.45;8.77;;;;;;;;;;5056052;28;20128;-37
2021/06/19 01:09:31;;;;;;;9.45;8.40;;;;;;;;;;5071653;28;20515;-37
2021/06/19 01:11:58;;;;;;;9.43;8.15;;;;;;;;;;5073086;28;20048;-37
2021/06/19 01:14:25;;;;;;;10.23;8.40;;;;;;;;;;5082077;28;20070;-37
2021/06/19 01:16:52;;;;;;;12.43;9.02;;;;;;;;;;5090368;28;20044;-38
2021/06/19 01:19:18;;;;;;;10.55;8.82;;;;;;;;;;5088169;28;20052;-37
2021/06/19 01:21:50;;;;;;;10.77;8.20;;;;;;;;;;5090897;28;20048;-36
2021/06/19 01:24:17;;;;;;;9.38;8.45;;;;;;;;;;5038999;22;20115;-37
2021/06/19 01:26:44;;;;;;;11.20;8.82;;;;;;;;;;5027981;28;20157;-37
2021/06/19 01:29:11;;;;;;;11.88;8.18;;;;;;;;;;5031499;28;20088;-38
2021/06/19 01:31:38;;;;;;;9.63;8.70;;;;;;;;;;5023620;28;20136;-38
2021/06/19 01:34:05;;;;;;;8.90;8.00;;;;;;;;;;5029848;28;20085;-38
2021/06/19 01:36:32;;;;;;;9.57;8.68;;;;;;;;;;5027976;28;20479;-38
2021/06/19 01:38:59;;;;;;;10.98;7.60;;;;;;;;;;5031175;28;20561;-37
2021/06/19 01:41:27;;;;;;;8.77;7.93;;;;;;;;;;5024839;28;20145;-37
2021/06/19 01:44:01;;;;;;;9.57;7.85;;;;;;;;;;5031114;28;20049;-37
2021/06/19 01:46:29;;;;;;;9.35;8.45;;;;;;;;;;5031254;28;20097;-37
2021/06/19 01:48:56;;;;;;;9.27;7.43;;;;;;;;;;5023259;28;20058;-37
2021/06/19 01:51:23;;;;;;;10.57;8.25;;;;;;;;;;5036585;28;20077;-37
2021/06/19 01:53:50;;;;;;;14.32;9.13;;;;;;;;;;5035718;28;20054;-37
2021/06/19 01:56:17;;;;;;;12.05;8.73;;;;;;;;;;5033685;28;20046;-37
2021/06/19 01:58:43;;;;;;;9.50;8.18;;;;;;;;;;5021791;28;20077;-37
2021/06/19 02:01:12;;;;;;;11.10;8.40;;;;;;;;;;5042336;28;20053;-37
2021/06/19 02:03:39;;;;;;;11.25;8.43;;;;;;;;;;5038517;28;20049;-37
2021/06/19 02:06:06;;;;;;;10.63;8.38;;;;;;;;;;5032537;28;20096;-37
2021/06/19 02:08:33;;;;;;;9.95;7.93;;;;;;;;;;5025476;28;20045;-37
2021/06/19 02:11:00;;;;;;;10.95;8.30;;;;;;;;;;5032130;28;20058;-37
2021/06/19 02:13:27;;;;;;;10.20;8.25;;;;;;;;;;5029385;28;20057;-37
2021/06/19 02:15:54;;;;;;;9.48;8.32;;;;;;;;;;5044515;28;20053;-37
2021/06/19 02:18:21;;;;;;;11.00;8.07;;;;;;;;;;5021545;28;20056;-38
2021/06/19 02:20:52;;;;;;;10.95;8.57;;;;;;;;;;5023596;28;20049;-38
2021/06/19 02:23:22;;;;;;;9.27;8.38;;;;;;;;;;5016912;28;20084;-37
2021/06/19 02:25:52;;;;;;;10.52;9.15;;;;;;;;;;5030514;28;20475;-38
2021/06/19 02:28:21;;;;;;;15.07;9.02;;;;;;;;;;5018383;28;20109;-38
2021/06/19 02:30:48;;;;;;;12.25;8.68;;;;;;;;;;5030331;28;20057;-38
2021/06/19 02:33:16;;;;;;;11.05;8.18;;;;;;;;;;5029038;28;20136;-38
2021/06/19 02:35:47;;;;;;;12.48;9.13;;;;;;;;;;5031925;28;20057;-38
2021/06/19 02:38:14;;;;;;;11.32;8.73;;;;;;;;;;5030472;28;20099;-39
2021/06/19 02:40:42;;;;;;;14.27;8.98;;;;;;;;;;5045067;28;20085;-38
2021/06/19 02:43:09;;;;;;;10.75;9.20;;;;;;;;;;5030436;28;20122;-38
2021/06/19 02:45:36;;;;;;;10.00;8.95;;;;;;;;;;5031384;28;20083;-38
2021/06/19 02:48:04;;;;;;;9.63;8.68;;;;;;;;;;5022834;28;20076;-38
2021/06/19 02:50:32;;;;;;;11.48;9.27;;;;;;;;;;5031955;28;20096;-38
2021/06/19 02:52:59;;;;;;;11.45;8.77;;;;;;;;;;5046126;28;20384;-38
2021/06/19 02:55:28;;;;;;;11.48;9.60;;;;;;;;;;5034392;28;20084;-38
2021/06/19 02:57:55;;;;;;;11.02;9.52;;;;;;;;;;5025593;28;20077;-37
2021/06/19 03:00:22;;;;;;;12.73;9.05;;;;;;;;;;5032993;28;20128;-38
2021/06/19 03:02:50;;;;;;;10.77;9.38;;;;;;;;;;5033672;28;20068;-37
2021/06/19 03:05:19;;;;;;;10.90;9.15;;;;;;;;;;5032189;28;20124;-37
2021/06/19 03:07:46;;;;;;;12.70;9.05;;;;;;;;;;5034659;28;20049;-37
2021/06/19 03:10:14;;;;;;;13.25;9.23;;;;;;;;;;5032549;28;20103;-37
2021/06/19 03:12:41;;;;;;;10.18;8.75;;;;;;;;;;5034315;28;20045;-37
2021/06/19 03:15:09;;;;;;;10.57;9.48;;;;;;;;;;5026979;28;20042;-37
2021/06/19 03:17:36;;;;;;;10.32;8.63;;;;;;;;;;5026093;28;20068;-37
2021/06/19 03:20:04;;;;;;;14.93;9.75;;;;;;;;;;5032802;28;20351;-38
2021/06/19 03:22:47;;;;;;;11.93;9.15;;;;;;;;;;5033849;28;20068;-37
2021/06/19 03:25:15;;;;;;;11.80;8.95;;;;;;;;;;5033087;28;20045;-37
2021/06/19 03:27:42;;;;;;;12.00;9.32;;;;;;;;;;5010008;28;20041;-37
2021/06/19 03:30:09;;;;;;;10.75;9.45;;;;;;;;;;5033231;28;20103;-36
2021/06/19 03:32:36;;;;;;;10.63;9.18;;;;;;;;;;5032350;28;20499;-37
2021/06/19 03:35:04;;;;;;;11.30;9.10;;;;;;;;;;5032599;28;20049;-37
2021/06/19 03:37:30;;;;;;;12.15;9.60;;;;;;;;;;5032913;28;20052;-37
2021/06/19 03:39:57;;;;;;;10.70;9.23;;;;;;;;;;5031909;28;20537;-39
2021/06/19 03:42:24;;;;;;;10.95;9.88;;;;;;;;;;5032767;28;20050;-37
2021/06/19 03:44:51;;;;;;;10.98;9.68;;;;;;;;;;5024098;28;20053;-37
2021/06/19 03:47:18;;;;;;;13.18;8.98;;;;;;;;;;5032064;28;20572;-38
2021/06/19 03:49:45;;;;;;;10.73;9.25;;;;;;;;;;5033136;28;20116;-37
2021/06/19 03:52:12;;;;;;;10.55;9.15;;;;;;;;;;5032910;28;20388;-40
2021/06/19 03:54:39;;;;;;;12.25;10.05;;;;;;;;;;5031938;28;20498;-37
2021/06/19 03:57:06;;;;;;;11.80;9.80;;;;;;;;;;5032263;28;20084;-37
2021/06/19 03:59:33;;;;;;;11.63;10.43;;;;;;;;;;5030911;28;20041;-37
2021/06/19 04:02:00;;;;;;;12.27;10.32;;;;;;;;;;5034817;28;20080;-39
2021/06/19 04:04:27;;;;;;;12.32;9.88;;;;;;;;;;5032707;28;20050;-39
2021/06/19 04:06:53;;;;;;;11.13;9.63;;;;;;;;;;5032679;28;20536;-39
2021/06/19 04:09:20;;;;;;;10.60;9.50;;;;;;;;;;5033447;28;20050;-39
2021/06/19 04:11:47;;;;;;;10.60;9.27;;;;;;;;;;5032507;28;20077;-38
2021/06/19 04:14:14;;;;;;;11.77;9.68;;;;;;;;;;5032081;28;20053;-39
2021/06/19 04:16:41;;;;;;;11.73;8.98;;;;;;;;;;5032110;28;20049;-38
2021/06/19 04:19:08;;;;;;;11.52;9.50;;;;;;;;;;5032581;28;20060;-38
2021/06/19 04:21:34;;;;;;;11.57;9.52;;;;;;;;;;5032716;28;20069;-39
2021/06/19 04:24:01;;;;;;;11.20;9.02;;;;;;;;;;5032153;28;20053;-38
2021/06/19 04:26:29;;;;;;;10.48;9.48;;;;;;;;;;5027070;28;20049;-38
2021/06/19 04:28:56;;;;;;;11.43;10.27;;;;;;;;;;5032877;28;20128;-38
2021/06/19 04:31:22;;;;;;;11.70;9.43;;;;;;;;;;5030618;28;20073;-39
2021/06/19 04:33:49;;;;;;;10.98;9.05;;;;;;;;;;5019811;28;20095;-38
2021/06/19 04:36:17;;;;;;;12.20;9.20;;;;;;;;;;5032194;28;20140;-38
2021/06/19 04:38:44;;;;;;;10.63;8.63;;;;;;;;;;5032552;28;20499;-38
2021/06/19 04:41:22;;;;;;;10.52;9.43;;;;;;;;;;5028931;28;20507;-37
2021/06/19 04:46:19;;;;;;;11.25;9.60;;;;;;;;;;5032359;28;20049;-38
2021/06/19 04:48:46;;;;;;;19.38;10.25;;;;;;;;;;5030892;28;20151;-38
2021/06/19 04:51:13;;;;;;;11.68;9.13;;;;;;;;;;5032689;28;20132;-38
2021/06/19 04:53:39;;;;;;;11.18;9.68;;;;;;;;;;5032019;28;20057;-38
2021/06/19 04:56:06;;;;;;;12.35;8.70;;;;;;;;;;5031624;28;20132;-37
2021/06/19 04:58:34;;;;;;;13.88;9.20;;;;;;;;;;5031589;28;20049;-38
2021/06/19 05:01:01;;;;;;;13.50;9.15;;;;;;;;;;5032779;28;20068;-38
2021/06/19 05:03:28;;;;;;;13.13;9.77;;;;;;;;;;5028020;28;20057;-38
2021/06/19 05:05:55;;;;;;;9.77;8.65;;;;;;;;;;5030421;28;20084;-38
2021/06/19 05:08:21;;;;;;;11.05;8.50;;;;;;;;;;5032003;28;20076;-38
2021/06/19 05:10:48;;;;;;;9.23;8.30;;;;;;;;;;5031686;28;20091;-38
2021/06/19 05:13:15;;;;;;;13.77;8.60;;;;;;;;;;5031499;28;20583;-38
2021/06/19 05:15:42;;;;;;;11.65;7.75;;;;;;;;;;5030132;28;20072;-38
2021/06/19 05:18:09;;;;;;;13.27;8.73;;;;;;;;;;5032043;28;20102;-38
2021/06/19 05:20:36;;;;;;;11.55;8.45;;;;;;;;;;5030909;28;20088;-38
2021/06/19 05:23:08;;;;;;;11.48;8.63;;;;;;;;;;5030995;28;20041;-38
2021/06/19 05:25:37;;;;;;;10.95;7.75;;;;;;;;;;5031498;28;20380;-38
2021/06/19 05:28:04;;;;;;;10.32;7.82;;;;;;;;;;5013104;28;20101;-38
2021/06/19 05:30:31;;;;;;;9.52;8.45;;;;;;;;;;5023034;28;20050;-38
2021/06/19 05:32:58;;;;;;;10.48;7.70;;;;;;;;;;5031931;28;20183;-38
2021/06/19 05:35:25;;;;;;;8.98;7.95;;;;;;;;;;5028331;28;20049;-38
2021/06/19 05:37:51;;;;;;;11.18;8.02;;;;;;;;;;5025722;28;20108;-38
2021/06/19 05:40:18;;;;;;;11.82;8.27;;;;;;;;;;5031147;28;20049;-38
2021/06/19 05:42:46;;;;;;;10.07;7.53;;;;;;;;;;5030002;28;20119;-38
2021/06/19 05:45:13;;;;;;;9.57;7.82;;;;;;;;;;5025017;28;20045;-38
2021/06/19 05:47:40;;;;;;;10.05;8.15;;;;;;;;;;5030986;28;20078;-38
2021/06/19 05:50:07;;;;;;;12.18;8.50;;;;;;;;;;5034118;28;20045;-38
2021/06/19 05:52:33;;;;;;;10.10;8.60;;;;;;;;;;5020534;28;20470;-38
2021/06/19 05:55:00;;;;;;;13.45;8.73;;;;;;;;;;5011751;28;20132;-38
2021/06/19 05:57:28;;;;;;;11.95;8.55;;;;;;;;;;5022584;28;20506;-36
2021/06/19 05:59:54;;;;;;;12.15;7.85;;;;;;;;;;5030345;28;20076;-37
2021/06/19 06:02:21;;;;;;;12.13;9.00;;;;;;;;;;5030705;28;20045;-37
2021/06/19 06:04:48;;;;;;;16.17;9.15;;;;;;;;;;5030180;28;20073;-37
2021/06/19 06:07:15;;;;;;;10.60;8.27;;;;;;;;;;5032018;28;20129;-37
2021/06/19 06:09:41;;;;;;;12.95;8.60;;;;;;;;;;5031143;28;20095;-40
2021/06/19 06:12:09;;;;;;;13.82;9.02;;;;;;;;;;5031066;28;20529;-40
2021/06/19 06:14:36;;;;;;;11.88;8.85;;;;;;;;;;5022589;28;20064;-40
2021/06/19 06:17:03;;;;;;;10.50;8.45;;;;;;;;;;5031909;28;20434;-39
2021/06/19 06:19:30;;;;;;;12.85;7.95;;;;;;;;;;5029469;28;20111;-40
2021/06/19 06:21:56;;;;;;;11.18;9.50;;;;;;;;;;5030939;28;20081;-39
2021/06/19 06:24:23;;;;;;;11.55;8.75;;;;;;;;;;5029577;28;20121;-39
2021/06/19 06:26:50;;;;;;;9.40;8.30;;;;;;;;;;5031123;28;20046;-39
2021/06/19 06:29:17;;;;;;;13.52;8.25;;;;;;;;;;5036902;28;20057;-39
2021/06/19 06:31:49;;;;;;;15.05;8.15;;;;;;;;;;5037716;28;20069;-39
2021/06/19 06:34:17;;;;;;;10.93;7.57;;;;;;;;;;5036476;28;20057;-37
2021/06/19 06:36:44;;;;;;;9.70;7.82;;;;;;;;;;5018955;28;20466;-39
2021/06/19 06:39:11;;;;;;;9.52;7.05;;;;;;;;;;5040697;28;20049;-39
2021/06/19 06:41:38;;;;;;;16.08;8.00;;;;;;;;;;5054534;28;20042;-39
2021/06/19 06:44:05;;;;;;;14.55;7.97;;;;;;;;;;5036780;28;20049;-36
2021/06/19 06:46:32;;;;;;;13.20;8.35;;;;;;;;;;5027289;28;20743;-38
2021/06/19 06:48:58;;;;;;;13.32;7.35;;;;;;;;;;5042372;28;20060;-37
2021/06/19 06:51:25;;;;;;;10.65;7.85;;;;;;;;;;5044709;28;20049;-37
2021/06/19 06:53:52;;;;;;;13.02;7.50;;;;;;;;;;5038959;28;20049;-37
2021/06/19 06:56:19;;;;;;;11.02;8.23;;;;;;;;;;5039015;28;20080;-37
2021/06/19 06:58:46;;;;;;;12.18;7.47;;;;;;;;;;5044963;28;20057;-37
2021/06/19 07:01:12;;;;;;;10.10;7.82;;;;;;;;;;5043475;28;20053;-39
2021/06/19 07:03:39;;;;;;;12.05;7.78;;;;;;;;;;5048610;28;20095;-37
2021/06/19 07:06:06;;;;;;;16.08;7.47;;;;;;;;;;5046383;28;20053;-39
2021/06/19 07:08:33;;;;;;;13.65;8.13;;;;;;;;;;5048673;28;20049;-38
2021/06/19 07:11:00;;;;;;;11.13;9.60;;;;;;;;;;5050171;28;20056;-38
2021/06/19 07:13:26;;;;;;;15.27;9.90;;;;;;;;;;5046888;28;20847;-38
2021/06/19 07:15:53;;;;;;;13.75;7.55;;;;;;;;;;5037948;28;20053;-38
2021/06/19 07:18:20;;;;;;;8.82;7.00;;;;;;;;;;5025273;28;20053;-36
2021/06/19 07:20:47;;;;;;;12.10;7.03;;;;;;;;;;5014451;28;20062;-36
2021/06/19 07:23:13;;;;;;;16.10;7.70;;;;;;;;;;5028672;28;20056;-39
2021/06/19 07:25:40;;;;;;;10.00;7.40;;;;;;;;;;5033342;28;20050;-38
2021/06/19 07:28:07;;;;;;;11.32;6.63;;;;;;;;;;5018672;28;20064;-38
2021/06/19 07:30:34;;;;;;;11.27;7.40;;;;;;;;;;5021440;28;20076;-39
2021/06/19 07:33:01;;;;;;;16.75;7.10;;;;;;;;;;5038738;28;20049;-39
2021/06/19 07:35:28;;;;;;;11.80;6.50;;;;;;;;;;5028080;28;20141;-39
2021/06/19 07:37:56;;;;;;;13.45;7.78;;;;;;;;;;5040713;28;20199;-38
2021/06/19 07:40:23;;;;;;;10.02;6.97;;;;;;;;;;5037417;28;20053;-38
2021/06/19 07:42:50;;;;;;;14.93;7.05;;;;;;;;;;5036451;28;20127;-38
2021/06/19 07:45:17;;;;;;;11.40;7.50;;;;;;;;;;5035531;28;20095;-39
2021/06/19 07:47:44;;;;;;;12.10;7.50;;;;;;;;;;5033872;28;20053;-39
2021/06/19 07:50:12;;;;;;;8.82;6.68;;;;;;;;;;5032547;28;20503;-40
2021/06/19 07:52:41;;;;;;;9.30;6.75;;;;;;;;;;5029527;28;20060;-40
2021/06/19 07:55:08;;;;;;;10.73;7.10;;;;;;;;;;5033148;28;20128;-39
2021/06/19 07:57:35;;;;;;;12.52;7.93;;;;;;;;;;5026406;28;20119;-40
2021/06/19 08:00:06;;;;;;;12.15;7.45;;;;;;;;;;5033561;28;20491;-38
2021/06/19 08:02:33;;;;;;;12.10;6.85;;;;;;;;;;5026456;28;20046;-37
2021/06/19 08:05:00;;;;;;;14.80;7.35;;;;;;;;;;5028306;28;20046;-36
2021/06/19 08:07:27;;;;;;;10.05;7.00;;;;;;;;;;5033147;28;20045;-36
2021/06/19 08:09:54;;;;;;;9.05;6.80;;;;;;;;;;5024282;28;20088;-36
2021/06/19 08:12:21;;;;;;;11.18;6.90;;;;;;;;;;5015900;28;20137;-38
2021/06/19 08:14:47;;;;;;;10.48;6.32;;;;;;;;;;5042316;28;20053;-38
2021/06/19 08:17:17;;;;;;;16.30;9.45;;;;;;;;;;5036999;28;20080;-38
2021/06/19 08:19:45;;;;;;;9.90;6.78;;;;;;;;;;5027874;28;20128;-38
2021/06/19 08:22:14;;;;;;;12.70;6.63;;;;;;;;;;5033256;28;20088;-38
2021/06/19 08:24:41;;;;;;;13.27;6.90;;;;;;;;;;5026307;28;20107;-47
2021/06/19 08:27:08;;;;;;;11.38;6.63;;;;;;;;;;5033710;28;20557;-39
2021/06/19 08:29:38;;;;;;;12.93;7.78;;;;;;;;;;5035842;28;20042;-38
2021/06/19 08:32:08;;;;;;;14.20;6.95;;;;;;;;;;5033419;28;20044;-39
2021/06/19 08:34:35;;;;;;;12.98;6.85;;;;;;;;;;5032203;28;20549;-38
2021/06/19 08:37:02;;;;;;;12.00;6.63;;;;;;;;;;5033888;28;20522;-38
2021/06/19 08:39:30;;;;;;;11.27;6.32;;;;;;;;;;5033011;28;20053;-38
2021/06/19 08:41:57;;;;;;;15.43;6.75;;;;;;;;;;5031626;28;20049;-38
2021/06/19 08:44:25;;;;;;;16.77;6.60;;;;;;;;;;5032404;28;20661;-38
2021/06/19 08:47:03;;;;;;;10.18;5.90;;;;;;;;;;5018625;28;20048;-38
2021/06/19 08:49:30;;;;;;;19.63;7.72;;;;;;;;;;5032660;28;20084;-38
2021/06/19 08:51:58;;;;;;;17.23;6.82;;;;;;;;;;5032165;28;20151;-38
2021/06/19 08:54:26;;;;;;;12.57;6.40;;;;;;;;;;5032450;28;20053;-38
2021/06/19 08:56:52;;;;;;;14.55;6.63;;;;;;;;;;5033466;28;20053;-39
2021/06/19 08:59:21;;;;;;;13.30;6.70;;;;;;;;;;5035056;28;20057;-38
2021/06/19 09:01:47;;;;;;;18.02;8.07;;;;;;;;;;5033542;28;20131;-38
2021/06/19 09:04:14;;;;;;;14.52;6.75;;;;;;;;;;5030676;28;20072;-38
2021/06/19 09:06:44;;;;;;;15.35;6.72;;;;;;;;;;5032213;28;20568;-38
2021/06/19 09:09:15;;;;;;;13.52;6.38;;;;;;;;;;5033083;28;20041;-38
2021/06/19 09:11:45;;;;;;;11.90;6.10;;;;;;;;;;5028592;28;20454;-39
2021/06/19 09:14:15;;;;;;;13.55;6.20;;;;;;;;;;5033951;28;20080;-36
2021/06/19 09:16:43;;;;;;;11.85;6.15;;;;;;;;;;5027408;28;20069;-37
2021/06/19 09:19:24;;;;;;;13.75;6.57;;;;;;;;;;5028077;28;20056;-38
2021/06/19 09:22:09;;;;;;;14.35;6.13;;;;;;;;;;5027688;28;20207;-37
2021/06/19 09:24:51;;;;;;;12.23;6.00;;;;;;;;;;5025487;28;20046;-37
2021/06/19 09:27:32;;;;;;;9.65;6.78;;;;;;;;;;5030729;28;20053;-38
2021/06/19 09:30:08;;;;;;;14.30;5.85;;;;;;;;;;5028948;28;20092;-37
2021/06/19 09:32:40;;;;;;;12.10;6.90;;;;;;;;;;5022976;28;20057;-37
2021/06/19 09:35:23;;;;;;;14.02;6.88;;;;;;;;;;5026217;28;20053;-37
2021/06/19 09:37:51;;;;;;;12.93;6.60;;;;;;;;;;5028590;28;20092;-39
2021/06/19 09:40:26;;;;;;;13.82;6.53;;;;;;;;;;5029823;28;20495;-37
2021/06/19 09:43:05;;;;;;;11.50;6.45;;;;;;;;;;5028753;28;20057;-38
2021/06/19 09:45:31;;;;;;;14.55;7.20;;;;;;;;;;5029907;28;20050;-38
2021/06/19 09:47:58;;;;;;;11.45;7.07;;;;;;;;;;5024493;28;20116;-37
2021/06/19 09:50:25;;;;;;;11.32;6.95;;;;;;;;;;5022167;28;20080;-37
2021/06/19 09:52:52;;;;;;;10.35;6.13;;;;;;;;;;5028575;28;20499;-38
2021/06/19 09:55:19;;;;;;;12.18;6.95;;;;;;;;;;5028522;28;20455;-37
2021/06/19 09:57:47;;;;;;;11.23;7.63;;;;;;;;;;5029665;28;20083;-37
2021/06/19 10:00:15;;;;;;;14.85;8.02;;;;;;;;;;5028790;28;20344;-38
2021/06/19 10:02:42;;;;;;;14.57;7.10;;;;;;;;;;5029200;28;20038;-37
2021/06/19 10:05:10;;;;;;;16.63;7.00;;;;;;;;;;5033881;28;20065;-36
2021/06/19 10:07:37;;;;;;;11.95;7.20;;;;;;;;;;5034355;28;20168;-38
2021/06/19 10:10:05;;;;;;;11.60;6.97;;;;;;;;;;5026534;28;20049;-37
2021/06/19 10:12:33;;;;;;;13.90;6.53;;;;;;;;;;5026696;28;20517;-38
2021/06/19 10:15:02;;;;;;;11.30;6.45;;;;;;;;;;5033136;28;20045;-37
2021/06/19 10:17:31;;;;;;;8.90;6.38;;;;;;;;;;5032914;28;20064;-38
2021/06/19 10:20:01;;;;;;;11.10;7.10;;;;;;;;;;5030068;28;20447;-39
2021/06/19 10:22:29;;;;;;;10.85;6.43;;;;;;;;;;5025683;28;20501;-38
2021/06/19 10:24:58;;;;;;;9.70;6.70;;;;;;;;;;5034098;28;20125;-37
2021/06/19 10:27:29;;;;;;;8.45;6.32;;;;;;;;;;5028396;28;20050;-37
2021/06/19 10:29:59;;;;;;;13.02;6.43;;;;;;;;;;5034034;28;20041;-37
2021/06/19 10:32:37;;;;;;;10.30;7.05;;;;;;;;;;5025280;28;20067;-38
2021/06/19 10:35:11;;;;;;;10.20;6.70;;;;;;;;;;5033103;28;20056;-38
2021/06/19 10:37:39;;;;;;;13.73;7.45;;;;;;;;;;5025165;28;20057;-37
2021/06/19 10:40:26;;;;;;;9.38;7.22;;;;;;;;;;5034848;28;20420;-40
2021/06/19 10:42:54;;;;;;;13.57;7.20;;;;;;;;;;5033116;28;20131;-37
2021/06/19 10:45:23;;;;;;;8.73;6.50;;;;;;;;;;5031842;28;20128;-37
2021/06/19 10:48:00;;;;;;;13.75;7.90;;;;;;;;;;5029821;28;20072;-41
2021/06/19 10:50:28;;;;;;;12.13;6.88;;;;;;;;;;5023758;28;20049;-39
2021/06/19 10:53:02;;;;;;;10.30;6.13;;;;;;;;;;5038265;28;20048;-40
2021/06/19 10:55:29;;;;;;;8.60;6.82;;;;;;;;;;5014396;28;20049;-37
2021/06/19 10:57:59;;;;;;;15.02;7.15;;;;;;;;;;5029225;28;20049;-37
2021/06/19 11:00:27;;;;;;;11.65;7.18;;;;;;;;;;5034456;28;20091;-37
2021/06/19 11:02:56;;;;;;;9.65;6.47;;;;;;;;;;5033306;28;20136;-40
2021/06/19 11:05:44;;;;;;;11.93;6.60;;;;;;;;;;5031083;28;20133;-37
2021/06/19 11:08:12;;;;;;;10.30;6.57;;;;;;;;;;5029669;28;20073;-38
2021/06/19 11:10:45;;;;;;;7.55;6.43;;;;;;;;;;5033835;28;20069;-38
2021/06/19 11:13:27;;;;;;;12.65;6.65;;;;;;;;;;5033147;28;20499;-38
2021/06/19 11:15:55;;;;;;;11.23;6.72;;;;;;;;;;5032509;28;20054;-37
2021/06/19 11:18:40;;;;;;;12.27;6.90;;;;;;;;;;5031939;28;20077;-38
2021/06/19 11:21:08;;;;;;;10.55;6.80;;;;;;;;;;5033622;28;20053;-40
2021/06/19 11:23:54;;;;;;;11.05;6.25;;;;;;;;;;5032100;28;20076;-38
2021/06/19 11:26:39;;;;;;;8.43;6.70;;;;;;;;;;5022981;28;20393;-38
2021/06/19 11:29:25;;;;;;;11.60;6.50;;;;;;;;;;5031122;28;20045;-39
2021/06/19 11:31:51;;;;;;;10.95;6.07;;;;;;;;;;5028247;28;20430;-38
2021/06/19 11:34:37;;;;;;;10.13;6.22;;;;;;;;;;5032023;28;20107;-40
2021/06/19 11:37:03;;;;;;;9.30;6.38;;;;;;;;;;5033101;28;20486;-38
2021/06/19 11:39:34;;;;;;;13.93;6.47;;;;;;;;;;5032915;28;20495;-41
2021/06/19 11:42:01;;;;;;;12.70;7.15;;;;;;;;;;5015119;28;20120;-38
2021/06/19 11:44:34;;;;;;;7.13;6.40;;;;;;;;;;5030543;28;20395;-38
2021/06/19 11:47:02;;;;;;;8.88;6.57;;;;;;;;;;5031963;28;20049;-38
2021/06/19 11:49:31;;;;;;;10.63;7.60;;;;;;;;;;5030226;28;20478;-38
2021/06/19 11:51:58;;;;;;;13.57;7.03;;;;;;;;;;5032648;28;20129;-38
2021/06/19 11:54:25;;;;;;;14.82;7.40;;;;;;;;;;5037927;28;20107;-38
2021/06/19 11:56:54;;;;;;;12.15;6.43;;;;;;;;;;5031852;28;20065;-37
2021/06/19 11:59:21;;;;;;;8.80;7.07;;;;;;;;;;5031503;28;20123;-40
2021/06/19 12:01:49;;;;;;;12.90;6.90;;;;;;;;;;5032615;28;20049;-38
2021/06/19 12:04:17;;;;;;;10.63;6.93;;;;;;;;;;5030387;28;20053;-38
2021/06/19 12:06:45;;;;;;;8.13;6.97;;;;;;;;;;5031493;28;20057;-38
2021/06/19 12:09:16;;;;;;;11.68;6.65;;;;;;;;;;5032230;28;20069;-42
2021/06/19 12:11:43;;;;;;;11.65;7.22;;;;;;;;;;5032826;28;20846;-38
2021/06/19 12:14:21;;;;;;;9.48;6.55;;;;;;;;;;5029407;28;20503;-38
2021/06/19 12:16:52;;;;;;;9.65;6.93;;;;;;;;;;5031646;28;20062;-39
2021/06/19 12:19:20;;;;;;;9.70;6.55;;;;;;;;;;5030580;28;20146;-38
2021/06/19 12:21:47;;;;;;;10.95;6.65;;;;;;;;;;5024253;28;20053;-38
2021/06/19 12:24:24;;;;;;;9.50;6.55;;;;;;;;;;5031507;28;20499;-39
2021/06/19 12:26:58;;;;;;;7.68;6.57;;;;;;;;;;5030826;28;20483;-38
2021/06/19 12:29:29;;;;;;;12.45;6.45;;;;;;;;;;5031519;28;20136;-38
2021/06/19 12:31:56;;;;;;;9.95;6.55;;;;;;;;;;5031911;28;20120;-38
2021/06/19 12:34:26;;;;;;;9.27;6.38;;;;;;;;;;5030001;28;20060;-38
2021/06/19 12:36:53;;;;;;;9.05;5.88;;;;;;;;;;5029360;28;20132;-38
2021/06/19 12:39:20;;;;;;;10.00;6.30;;;;;;;;;;5031536;28;20049;-37
2021/06/19 12:41:47;;;;;;;11.05;6.25;;;;;;;;;;5030914;28;20059;-37
2021/06/19 12:44:14;;;;;;;11.25;6.22;;;;;;;;;;5030877;28;20128;-36
2021/06/19 12:46:41;;;;;;;9.20;6.63;;;;;;;;;;5029638;28;20046;-40
2021/06/19 12:49:08;;;;;;;10.05;6.53;;;;;;;;;;5030469;28;20045;-37
2021/06/19 12:51:36;;;;;;;10.18;6.35;;;;;;;;;;5031855;28;20128;-39
2021/06/19 12:54:24;;;;;;;10.60;6.55;;;;;;;;;;5031191;28;20072;-38
2021/06/19 12:56:51;;;;;;;11.05;6.75;;;;;;;;;;5029999;28;20057;-38
2021/06/19 12:59:18;;;;;;;12.52;6.68;;;;;;;;;;5031116;28;20070;-36
2021/06/19 13:01:59;;;;;;;12.90;7.05;;;;;;;;;;5024392;28;20130;-37
2021/06/19 13:04:26;;;;;;;9.98;6.55;;;;;;;;;;5023496;28;20064;-37
2021/06/19 13:07:02;;;;;;;9.85;6.95;;;;;;;;;;5026635;28;20115;-37
2021/06/19 13:09:44;;;;;;;11.07;6.95;;;;;;;;;;5021768;28;20053;-37
2021/06/19 13:12:11;;;;;;;7.47;6.03;;;;;;;;;;5031865;28;20088;-38
2021/06/19 13:14:38;;;;;;;9.00;6.55;;;;;;;;;;5031086;28;20056;-36
2021/06/19 13:17:15;;;;;;;12.05;6.18;;;;;;;;;;5026372;28;20088;-38
2021/06/19 13:19:43;;;;;;;12.95;6.65;;;;;;;;;;5045460;28;20439;-38
2021/06/19 13:22:09;;;;;;;9.13;6.03;;;;;;;;;;5029689;28;20580;-37
2021/06/19 13:24:38;;;;;;;8.93;6.40;;;;;;;;;;5030596;28;20080;-38
2021/06/19 13:27:09;;;;;;;9.55;6.35;;;;;;;;;;5030791;28;20045;-38
2021/06/19 13:29:36;;;;;;;12.30;7.15;;;;;;;;;;5024466;28;20132;-37
2021/06/19 13:32:04;;;;;;;16.33;6.97;;;;;;;;;;5030640;28;20060;-41
2021/06/19 13:34:31;;;;;;;14.93;7.55;;;;;;;;;;5028952;28;20060;-41
2021/06/19 13:37:08;;;;;;;9.90;6.55;;;;;;;;;;5026716;28;20076;-41
2021/06/19 13:39:36;;;;;;;12.02;6.88;;;;;;;;;;5029147;28;20045;-38
2021/06/19 13:42:08;;;;;;;10.63;6.20;;;;;;;;;;5031654;28;20053;-41
2021/06/19 13:44:37;;;;;;;13.05;6.78;;;;;;;;;;5023933;28;20107;-41
2021/06/19 13:47:08;;;;;;;10.07;6.95;;;;;;;;;;5027718;28;20050;-37
2021/06/19 13:49:36;;;;;;;8.18;6.15;;;;;;;;;;5030971;28;20053;-37
2021/06/19 13:52:04;;;;;;;10.25;6.68;;;;;;;;;;5029883;28;20515;-40
2021/06/19 13:54:40;;;;;;;10.18;5.97;;;;;;;;;;5030014;28;20049;-40
2021/06/19 13:57:12;;;;;;;12.50;6.53;;;;;;;;;;5026887;28;20065;-40
2021/06/19 13:59:40;;;;;;;9.30;5.70;;;;;;;;;;5022137;28;20499;-40
2021/06/19 14:02:07;;;;;;;9.07;5.78;;;;;;;;;;5038382;28;20116;-38
2021/06/19 14:04:34;;;;;;;9.02;5.90;;;;;;;;;;5033998;28;20408;-39
2021/06/19 14:07:02;;;;;;;9.75;6.13;;;;;;;;;;5028806;28;20041;-38
2021/06/19 14:09:32;;;;;;;9.45;6.20;;;;;;;;;;5030200;28;20081;-38
2021/06/19 14:12:03;;;;;;;6.93;6.18;;;;;;;;;;5031400;28;20050;-38
2021/06/19 14:14:30;;;;;;;9.13;5.93;;;;;;;;;;5028494;28;20503;-40
2021/06/19 14:16:57;;;;;;;10.77;6.38;;;;;;;;;;5028513;28;20132;-38
2021/06/19 14:19:24;;;;;;;10.73;5.90;;;;;;;;;;5028567;28;20034;-38
2021/06/19 14:21:51;;;;;;;7.00;5.72;;;;;;;;;;5029789;28;20485;-38
2021/06/19 14:24:18;;;;;;;8.65;5.78;;;;;;;;;;5030078;28;20053;-37
2021/06/19 14:26:50;;;;;;;8.55;6.10;;;;;;;;;;5030325;28;20108;-39
2021/06/19 14:29:17;;;;;;;6.40;5.80;;;;;;;;;;5029721;28;20053;-39
2021/06/19 14:31:44;;;;;;;8.32;6.25;;;;;;;;;;5031935;28;20502;-39
2021/06/19 14:34:11;;;;;;;10.52;6.60;;;;;;;;;;5030363;28;20095;-39
2021/06/19 14:36:38;;;;;;;8.70;6.30;;;;;;;;;;5029535;28;20069;-39
2021/06/19 14:39:05;;;;;;;11.68;6.68;;;;;;;;;;5029717;28;20133;-38
2021/06/19 14:41:32;;;;;;;10.20;6.20;;;;;;;;;;5028777;28;20046;-38
2021/06/19 14:43:58;;;;;;;7.20;6.28;;;;;;;;;;5027838;28;20037;-39